Time;durP1;ratioP1;P1;durP2;ratioP2;P2;SDS_P1;SDS_P2;PMS_P1;PMS_P2;Temp;Humidity;BMP_temperature;BMP_pressure;BME280_temperature;BME280_humidity;BME280_pressure;Samples;Min_cycle;Max_cycle;Signal;HPM_P1;HPM_P2
2023/10/24 00:02:51;;;;;;;5.63;3.30;;;;;;;15.31;100.00;99381.13;8322561;28;20214;-60
2023/10/24 00:06:52;;;;;;;5.47;2.90;;;;;;;15.30;100.00;99367.72;8320432;28;20040;-61
2023/10/24 00:11:01;;;;;;;7.00;3.17;;;;;;;15.16;100.00;99366.78;8330716;28;20028;-62
2023/10/24 00:15:02;;;;;;;14.20;4.00;;;;;;;15.13;100.00;99344.56;8365017;28;20036;-62
2023/10/24 00:19:02;;;;;;;6.93;3.45;;;;;;;15.01;100.00;99352.41;8356320;28;20055;-61
2023/10/24 00:23:03;;;;;;;5.75;2.78;;;;;;;15.00;100.00;99358.91;8301784;28;20252;-61
2023/10/24 00:27:03;;;;;;;7.93;3.00;;;;;;;15.02;100.00;99354.13;8284919;28;20064;-61
2023/10/24 00:31:07;;;;;;;9.80;2.97;;;;;;;15.04;100.00;99330.25;8294988;28;20056;-61
2023/10/24 00:35:07;;;;;;;7.03;3.10;;;;;;;14.93;100.00;99344.41;8315175;28;20134;-61
2023/10/24 00:39:08;;;;;;;6.75;3.05;;;;;;;14.94;100.00;99335.19;8315882;28;20053;-61
2023/10/24 00:43:09;;;;;;;3.38;1.88;;;;;;;14.89;100.00;99348.56;8316030;28;20033;-62
2023/10/24 00:47:10;;;;;;;7.13;2.00;;;;;;;14.90;100.00;99371.16;8331793;28;20534;-62
2023/10/24 00:51:11;;;;;;;6.75;1.83;;;;;;;14.80;100.00;99373.38;8371317;28;20063;-62
2023/10/24 00:55:13;;;;;;;5.07;2.15;;;;;;;14.76;100.00;99374.81;8372313;28;20037;-62
2023/10/24 00:59:15;;;;;;;2.17;1.73;;;;;;;14.80;100.00;99365.22;8370130;28;20136;-59
2023/10/24 01:03:16;;;;;;;3.55;1.58;;;;;;;14.63;100.00;99348.31;8372127;28;20036;-59
2023/10/24 01:07:16;;;;;;;3.40;2.17;;;;;;;14.57;100.00;99351.81;8373474;28;20041;-58
2023/10/24 01:11:17;;;;;;;6.68;2.00;;;;;;;14.47;100.00;99343.16;8369411;28;20044;-62
2023/10/24 01:15:18;;;;;;;1.77;1.67;;;;;;;14.58;100.00;99353.50;8366076;28;20041;-62
2023/10/24 01:19:18;;;;;;;5.20;1.60;;;;;;;14.68;100.00;99345.88;8369431;28;20131;-62
2023/10/24 01:23:19;;;;;;;6.78;1.73;;;;;;;14.89;100.00;99348.56;8370197;28;20036;-62
2023/10/24 01:27:21;;;;;;;2.83;1.65;;;;;;;14.96;100.00;99344.00;8371541;28;20403;-62
2023/10/24 01:31:21;;;;;;;4.15;1.60;;;;;;;15.00;100.00;99339.84;8372892;28;20051;-59
2023/10/24 01:35:22;;;;;;;1.52;1.13;;;;;;;15.11;100.00;99342.03;8369745;28;20457;-58
2023/10/24 01:39:23;;;;;;;5.53;1.20;;;;;;;15.14;100.00;99336.19;8372249;28;20045;-59
2023/10/24 01:43:23;;;;;;;5.18;1.20;;;;;;;15.09;100.00;99341.38;8368780;28;20055;-59
2023/10/24 01:47:24;;;;;;;2.25;1.13;;;;;;;15.20;100.00;99343.56;8367390;28;20041;-62
2023/10/24 01:51:24;;;;;;;3.47;1.27;;;;;;;15.14;100.00;99341.66;8312829;28;20171;-61
2023/10/24 01:55:25;;;;;;;2.50;1.10;;;;;;;15.08;100.00;99347.88;8316712;28;20300;-61
2023/10/24 01:59:25;;;;;;;2.58;0.82;;;;;;;15.15;100.00;99351.50;8313970;28;20079;-61
2023/10/24 02:03:26;;;;;;;4.03;0.88;;;;;;;15.25;100.00;99343.81;8314866;28;20051;-60
2023/10/24 02:07:27;;;;;;;2.15;0.98;;;;;;;15.20;100.00;99378.97;8316330;28;20411;-61
2023/10/24 02:11:29;;;;;;;0.93;0.70;;;;;;;15.27;100.00;99347.19;8315721;28;20497;-60
2023/10/24 02:15:29;;;;;;;5.57;1.02;;;;;;;15.16;100.00;99350.44;8319342;28;20367;-61
2023/10/24 02:19:30;;;;;;;2.40;0.73;;;;;;;15.21;100.00;99355.28;8367347;28;20068;-58
2023/10/24 02:23:30;;;;;;;1.52;0.68;;;;;;;15.14;100.00;99374.31;8370652;28;20036;-58
2023/10/24 02:27:32;;;;;;;2.47;0.73;;;;;;;15.19;100.00;99377.25;8368697;28;20032;-58
2023/10/24 02:31:32;;;;;;;1.92;0.68;;;;;;;15.30;100.00;99368.56;8369479;28;20098;-60
2023/10/24 02:35:33;;;;;;;3.20;0.50;;;;;;;15.36;100.00;99373.22;8364820;28;20049;-60
2023/10/24 02:39:33;;;;;;;0.40;0.40;;;;;;;15.43;99.13;99379.56;8365194;28;20041;-59
2023/10/24 02:43:34;;;;;;;2.85;0.70;;;;;;;15.34;99.64;99374.47;8372218;28;20104;-58
2023/10/24 02:47:34;;;;;;;1.05;0.43;;;;;;;15.32;100.00;99371.94;8385530;28;20037;-58
2023/10/24 02:51:36;;;;;;;1.23;0.68;;;;;;;15.29;100.00;99366.88;8368438;28;20090;-59
2023/10/24 02:55:36;;;;;;;1.70;0.60;;;;;;;15.24;100.00;99366.63;8370401;28;20060;-58
2023/10/24 02:59:37;;;;;;;1.02;0.40;;;;;;;15.28;99.53;99358.91;8369113;28;20037;-60
2023/10/24 03:03:38;;;;;;;3.35;0.40;;;;;;;15.30;98.73;99374.00;8367576;28;20040;-59
2023/10/24 03:07:38;;;;;;;1.75;0.60;;;;;;;15.44;97.00;99362.19;8370394;28;20476;-58
2023/10/24 03:11:39;;;;;;;0.10;0.10;;;;;;;15.38;97.44;99397.56;8369928;28;20041;-60
2023/10/24 03:15:41;;;;;;;0.40;0.30;;;;;;;15.34;97.99;99378.00;8368777;28;20040;-60
2023/10/24 03:19:41;;;;;;;1.98;0.25;;;;;;;15.27;98.78;99385.31;8315536;28;20355;-61
2023/10/24 03:23:44;;;;;;;1.33;0.38;;;;;;;15.35;98.11;99371.53;8322418;28;20249;-61
2023/10/24 03:27:44;;;;;;;0.70;0.22;;;;;;;15.39;97.82;99372.00;8319428;28;20327;-60
2023/10/24 03:31:45;;;;;;;0.25;0.20;;;;;;;15.36;98.24;99378.66;8320825;28;20158;-60
2023/10/24 03:35:45;;;;;;;1.38;0.32;;;;;;;15.30;98.06;99371.28;8321481;28;20570;-61
2023/10/24 03:39:46;;;;;;;0.40;0.20;;;;;;;15.37;98.51;99390.44;8319441;28;20048;-60
2023/10/24 03:43:48;;;;;;;0.43;0.22;;;;;;;15.32;98.50;99361.06;8321264;28;20189;-60
2023/10/24 03:47:49;;;;;;;0.20;0.20;;;;;;;15.30;98.79;99368.56;8370360;28;20120;-59
2023/10/24 03:51:49;;;;;;;1.60;0.40;;;;;;;15.23;99.69;99381.31;8375264;28;20130;-59
2023/10/24 03:55:58;;;;;;;1.70;0.40;;;;;;;15.20;99.87;99383.56;8373442;28;20040;-60
2023/10/24 03:59:59;;;;;;;0.80;0.30;;;;;;;15.09;100.00;99368.59;8369848;28;20037;-59
2023/10/24 04:03:59;;;;;;;0.47;0.45;;;;;;;14.99;100.00;99368.13;8367812;28;20340;-59
2023/10/24 04:08:01;;;;;;;0.55;0.30;;;;;;;14.96;100.00;99381.25;8384100;28;20053;-60
2023/10/24 04:12:02;;;;;;;1.75;0.98;;;;;;;14.91;100.00;99395.47;8367372;28;20036;-61
2023/10/24 04:16:03;;;;;;;0.90;0.80;;;;;;;14.76;100.00;99391.13;8373677;28;20458;-61
2023/10/24 04:20:06;;;;;;;1.45;0.60;;;;;;;14.69;100.00;99396.50;8372910;28;20049;-61
2023/10/24 04:24:07;;;;;;;1.00;0.70;;;;;;;14.81;100.00;99392.22;8373723;28;20036;-59
2023/10/24 04:28:07;;;;;;;1.13;0.85;;;;;;;14.68;100.00;99383.94;8371061;28;20044;-58
2023/10/24 04:32:08;;;;;;;2.97;0.80;;;;;;;14.86;100.00;99387.06;8371774;28;20517;-57
2023/10/24 04:36:10;;;;;;;2.80;0.50;;;;;;;14.92;100.00;99379.97;8369761;28;20474;-57
2023/10/24 04:40:11;;;;;;;1.75;0.60;;;;;;;14.92;100.00;99386.28;8370081;28;20057;-59
2023/10/24 04:44:12;;;;;;;1.23;0.68;;;;;;;14.87;100.00;99387.88;8367089;28;20059;-60
2023/10/24 04:48:12;;;;;;;1.42;0.40;;;;;;;14.80;100.00;99376.97;8292080;28;20056;-58
2023/10/24 04:52:12;;;;;;;3.10;0.98;;;;;;;14.75;100.00;99379.41;8325610;28;20111;-60
2023/10/24 04:56:13;;;;;;;6.22;2.40;;;;;;;14.82;100.00;99385.75;8333070;28;20118;-60
2023/10/24 05:00:14;;;;;;;2.63;1.25;;;;;;;14.73;100.00;99389.63;8319415;28;20526;-61
2023/10/24 05:04:14;;;;;;;1.52;0.73;;;;;;;14.80;100.00;99376.97;8282588;28;20468;-61
2023/10/24 05:08:15;;;;;;;2.05;0.60;;;;;;;14.84;100.00;99361.91;8282571;28;20037;-61
2023/10/24 05:12:15;;;;;;;2.97;0.52;;;;;;;14.87;100.00;99355.22;8283804;28;20134;-61
2023/10/24 05:16:16;;;;;;;1.65;0.70;;;;;;;14.80;100.00;99355.19;8297130;28;20049;-61
2023/10/24 05:20:17;;;;;;;1.42;0.70;;;;;;;14.72;100.00;99352.59;8298836;28;20347;-61
2023/10/24 05:24:18;;;;;;;3.25;0.95;;;;;;;14.59;100.00;99367.94;8330026;28;20076;-61
2023/10/24 05:28:18;;;;;;;2.95;1.05;;;;;;;14.53;100.00;99391.31;8364517;28;20094;-61
2023/10/24 05:32:18;;;;;;;22.73;10.32;;;;;;;14.51;100.00;99398.81;8369274;28;20041;-61
2023/10/24 05:36:19;;;;;;;1.83;1.33;;;;;;;14.50;100.00;99375.41;8350535;28;20043;-61
2023/10/24 05:40:19;;;;;;;2.95;2.30;;;;;;;14.52;100.00;99381.47;8350731;28;20519;-60
2023/10/24 05:44:20;;;;;;;1.83;1.20;;;;;;;14.54;100.00;99376.69;8347933;28;20103;-61
2023/10/24 05:48:22;;;;;;;2.53;1.38;;;;;;;14.55;100.00;99391.94;8363334;28;20063;-60
2023/10/24 05:52:22;;;;;;;0.85;0.70;;;;;;;14.66;100.00;99380.56;8360442;28;20043;-61
2023/10/24 05:56:23;;;;;;;2.85;0.80;;;;;;;14.66;100.00;99364.25;8341856;28;20313;-61
2023/10/24 06:00:24;;;;;;;2.13;0.70;;;;;;;14.68;98.85;99355.91;8338206;28;20453;-60
2023/10/24 06:04:24;;;;;;;1.83;0.82;;;;;;;14.62;98.76;99362.97;8367623;28;20147;-59
2023/10/24 06:08:24;;;;;;;1.05;0.50;;;;;;;14.67;97.68;99360.47;8368431;28;20374;-58
2023/10/24 06:12:28;;;;;;;0.70;0.60;;;;;;;14.69;98.14;99343.97;8369737;28;20040;-61
2023/10/24 06:16:28;;;;;;;0.93;0.60;;;;;;;14.67;97.66;99346.88;8369936;28;20071;-60
2023/10/24 06:20:30;;;;;;;5.15;1.83;;;;;;;14.67;97.58;99354.22;8367259;28;20044;-61
2023/10/24 06:24:30;;;;;;;2.15;1.33;;;;;;;14.66;97.59;99368.84;8361004;28;22424;-62
2023/10/24 06:28:31;;;;;;;2.90;1.70;;;;;;;14.57;97.98;99362.69;8369837;28;20499;-62
2023/10/24 06:32:31;;;;;;;2.63;0.82;;;;;;;14.57;98.08;99353.69;8367765;28;20091;-62
2023/10/24 06:36:31;;;;;;;3.17;1.63;;;;;;;14.58;97.80;99364.38;8370192;28;20048;-62
2023/10/24 06:40:32;;;;;;;2.60;0.88;;;;;;;14.65;96.39;99354.41;8358919;28;20091;-62
2023/10/24 06:44:32;;;;;;;2.22;1.42;;;;;;;14.62;97.76;99352.09;8336209;28;20041;-60
2023/10/24 06:48:33;;;;;;;1.77;0.80;;;;;;;14.51;97.77;99354.47;8333936;28;20094;-60
2023/10/24 06:52:34;;;;;;;1.30;0.65;;;;;;;14.46;98.07;99341.47;8335838;28;20044;-60
2023/10/24 06:56:35;;;;;;;1.40;0.77;;;;;;;14.51;96.95;99343.56;8343586;28;20037;-62
2023/10/24 07:00:35;;;;;;;4.13;1.58;;;;;;;14.45;98.10;99345.22;8345999;28;20075;-61
2023/10/24 07:04:35;;;;;;;4.22;0.82;;;;;;;14.48;97.19;99342.09;8365465;28;20111;-63
2023/10/24 07:08:36;;;;;;;1.40;0.82;;;;;;;14.50;96.04;99344.63;8376819;28;20110;-62
2023/10/24 07:12:37;;;;;;;1.80;0.75;;;;;;;14.57;95.87;99362.69;8374180;28;20041;-62
2023/10/24 07:16:37;;;;;;;1.75;0.80;;;;;;;14.62;95.01;99360.25;8358628;28;20041;-62
2023/10/24 07:20:38;;;;;;;4.20;0.60;;;;;;;14.61;95.08;99355.81;8341581;28;20477;-62
2023/10/24 07:24:38;;;;;;;1.00;0.70;;;;;;;14.60;95.44;99359.59;8345844;28;20044;-60
2023/10/24 07:28:39;;;;;;;0.93;0.50;;;;;;;14.55;96.33;99359.31;8346203;28;20481;-61
2023/10/24 07:32:39;;;;;;;2.17;0.70;;;;;;;14.60;96.14;99337.81;8349279;28;20045;-61
2023/10/24 07:36:40;;;;;;;0.95;0.68;;;;;;;14.67;96.00;99348.78;8346619;28;20037;-62
2023/10/24 07:40:40;;;;;;;2.95;0.70;;;;;;;14.71;95.72;99350.91;8339855;28;20037;-61
2023/10/24 07:44:41;;;;;;;2.33;1.15;;;;;;;14.69;96.77;99347.53;8344145;28;20049;-61
2023/10/24 07:48:41;;;;;;;1.80;1.23;;;;;;;14.74;97.74;99355.97;8338420;28;20108;-60
2023/10/24 07:52:42;;;;;;;3.25;1.73;;;;;;;14.61;99.21;99361.25;8341312;28;20040;-61
2023/10/24 07:56:43;;;;;;;1.40;1.20;;;;;;;14.55;99.89;99362.03;8336257;28;20085;-61
2023/10/24 08:00:45;;;;;;;5.57;2.15;;;;;;;14.61;98.00;99355.81;8339901;28;20476;-61
2023/10/24 08:04:46;;;;;;;2.50;1.85;;;;;;;14.82;95.19;99368.59;8338590;28;20103;-60
2023/10/24 08:08:46;;;;;;;2.15;0.90;;;;;;;14.92;93.90;99379.97;8349908;28;20047;-61
2023/10/24 08:12:47;;;;;;;3.67;0.98;;;;;;;15.04;94.19;99368.34;8345442;28;20048;-60
2023/10/24 08:16:47;;;;;;;3.38;0.80;;;;;;;15.07;94.10;99373.41;8338496;28;20048;-60
2023/10/24 08:20:48;;;;;;;1.42;0.70;;;;;;;15.13;94.29;99378.06;8335035;28;20044;-60
2023/10/24 08:24:48;;;;;;;2.00;0.80;;;;;;;15.26;93.48;99386.34;8358804;28;20059;-62
2023/10/24 08:28:49;;;;;;;3.75;1.10;;;;;;;15.38;93.10;99384.81;8429308;28;20506;-62
2023/10/24 08:32:49;;;;;;;2.00;0.90;;;;;;;15.52;91.55;99381.09;8438229;28;20036;-62
2023/10/24 08:36:50;;;;;;;1.60;0.73;;;;;;;15.67;90.39;99387.28;8439076;28;20035;-62
2023/10/24 08:40:50;;;;;;;3.38;0.90;;;;;;;15.84;89.43;99398.69;8431797;28;20040;-62
2023/10/24 08:44:52;;;;;;;1.77;0.88;;;;;;;15.89;89.28;99398.09;8437492;28;20043;-62
2023/10/24 08:48:53;;;;;;;0.73;0.50;;;;;;;15.99;88.86;99399.41;8434606;28;20130;-62
2023/10/24 08:52:54;;;;;;;1.13;0.60;;;;;;;16.08;88.38;99400.91;8434653;28;20125;-61
2023/10/24 08:56:54;;;;;;;2.03;0.70;;;;;;;16.17;87.37;99404.31;8437044;28;20047;-61
2023/10/24 09:00:55;;;;;;;1.58;1.25;;;;;;;16.16;85.82;99386.28;8436411;28;20032;-61
2023/10/24 09:04:55;;;;;;;2.17;0.50;;;;;;;16.21;85.95;99397.41;8438138;28;20058;-61
2023/10/24 09:08:56;;;;;;;1.30;0.60;;;;;;;16.11;86.01;99381.44;8436049;28;20070;-61
2023/10/24 09:12:56;;;;;;;3.83;0.80;;;;;;;16.12;87.08;99382.25;8436581;28;20425;-61
2023/10/24 09:17:00;;;;;;;1.50;0.50;;;;;;;16.22;86.15;99388.19;8417917;28;20567;-61
2023/10/24 09:21:01;;;;;;;4.45;0.60;;;;;;;16.21;86.33;99383.75;8433468;28;20047;-61
2023/10/24 09:25:03;;;;;;;2.55;0.60;;;;;;;16.11;85.62;99372.41;8436176;28;20040;-59
2023/10/24 09:29:07;;;;;;;1.55;0.60;;;;;;;16.09;86.35;99369.88;8431993;28;20047;-59
2023/10/24 09:33:08;;;;;;;2.88;0.60;;;;;;;16.02;86.74;99346.34;8438726;28;20036;-62
2023/10/24 09:37:10;;;;;;;1.98;0.50;;;;;;;16.10;86.58;99355.19;8415797;28;20126;-62
2023/10/24 09:41:11;;;;;;;1.35;0.52;;;;;;;16.21;85.83;99359.22;8429726;28;20393;-62
2023/10/24 09:45:13;;;;;;;1.45;0.50;;;;;;;16.24;85.96;99350.63;8434534;28;20036;-62
2023/10/24 09:49:14;;;;;;;3.10;0.60;;;;;;;16.50;85.77;99340.66;8434096;28;20047;-61
2023/10/24 09:53:18;;;;;;;2.28;0.60;;;;;;;16.61;85.74;99347.38;8436374;28;20061;-60
2023/10/24 09:57:20;;;;;;;2.60;0.60;;;;;;;16.51;86.53;99330.59;8431006;28;20092;-60
2023/10/24 10:01:22;;;;;;;2.75;0.60;;;;;;;16.54;86.05;99324.72;8417824;28;20679;-60
2023/10/24 10:05:23;;;;;;;2.15;0.90;;;;;;;16.62;86.15;99324.53;8423781;28;20806;-61
2023/10/24 10:09:24;;;;;;;1.67;0.80;;;;;;;16.56;85.65;99319.91;8426056;28;20047;-61
2023/10/24 10:13:30;;;;;;;2.05;1.00;;;;;;;16.62;85.06;99321.78;8415702;28;20039;-61
2023/10/24 10:18:01;;;;;;;1.75;0.60;;;;;;;16.65;85.24;99332.28;8400487;28;20047;-61
2023/10/24 10:22:41;;;;;;;2.30;0.63;;;;;;;16.55;84.85;99320.94;8420702;28;20040;-61
2023/10/24 10:27:06;;;;;;;2.55;0.70;;;;;;;16.60;85.47;99324.72;8413994;28;20127;-61
2023/10/24 10:31:35;;;;;;;1.33;0.60;;;;;;;16.43;87.38;99317.09;8430437;28;20035;-61
2023/10/24 10:35:58;;;;;;;2.25;0.60;;;;;;;16.31;87.61;99308.69;8431728;28;20067;-61
2023/10/24 10:44:42;;;;;;;2.35;1.10;;;;;;;16.32;88.38;99309.53;8360005;27;20668;-59
2023/10/24 10:48:43;;;;;;;2.58;1.00;;;;;;;16.32;88.12;99301.34;8345782;28;20067;-59
2023/10/24 10:52:51;;;;;;;2.15;1.08;;;;;;;16.33;88.13;99300.28;8343092;28;20325;-59
2023/10/24 10:57:00;;;;;;;1.88;0.90;;;;;;;16.22;89.07;99303.66;8342562;28;20042;-59
2023/10/24 11:01:05;;;;;;;3.10;0.98;;;;;;;16.12;89.28;99308.63;8343936;28;20091;-59
2023/10/24 11:10:16;;;;;;;3.22;0.95;;;;;;;15.87;91.76;99291.16;8368278;27;20409;-58
2023/10/24 11:14:20;;;;;;;2.42;0.90;;;;;;;15.67;95.76;99300.09;8366057;28;20042;-61
2023/10/24 11:18:21;;;;;;;1.67;1.35;;;;;;;15.55;99.10;99290.81;8365092;28;20037;-61
2023/10/24 11:22:23;;;;;;;3.72;1.58;;;;;;;15.41;100.00;99289.03;8365589;28;20049;-60
2023/10/24 11:26:24;;;;;;;4.18;1.50;;;;;;;15.27;100.00;99302.75;8363834;28;20037;-60
2023/10/24 11:30:24;;;;;;;2.97;1.75;;;;;;;15.17;100.00;99305.84;8369363;28;20041;-60
2023/10/24 11:34:25;;;;;;;6.10;2.75;;;;;;;15.03;100.00;99292.34;8366734;28;20053;-58
2023/10/24 11:38:25;;;;;;;2.95;2.15;;;;;;;14.97;100.00;99299.41;8369950;28;20041;-58
2023/10/24 11:42:27;;;;;;;5.45;2.50;;;;;;;14.97;100.00;99285.81;8370664;28;20410;-58
2023/10/24 11:46:27;;;;;;;4.07;3.10;;;;;;;14.99;100.00;99293.78;8367002;28;20079;-59
2023/10/24 11:50:45;;;;;;;3.17;2.67;;;;;;;14.92;100.00;99288.31;8363213;28;20546;-59
2023/10/24 11:54:51;;;;;;;5.43;3.15;;;;;;;14.86;100.00;99297.25;8368142;28;20045;-58
2023/10/24 11:58:52;;;;;;;8.48;3.13;;;;;;;14.83;100.00;99316.69;8362136;28;20568;-59
2023/10/24 12:02:53;;;;;;;7.80;2.47;;;;;;;14.81;100.00;99312.47;8365571;28;20538;-58
2023/10/24 12:07:03;;;;;;;4.50;2.10;;;;;;;14.75;100.00;99303.22;8361368;28;20349;-58
2023/10/24 12:11:03;;;;;;;2.78;1.20;;;;;;;14.70;100.00;99311.13;8368167;28;20041;-59
2023/10/24 12:15:05;;;;;;;1.95;0.90;;;;;;;14.75;100.00;99313.25;8361320;28;20037;-59
2023/10/24 12:19:06;;;;;;;0.80;0.40;;;;;;;14.78;100.00;99318.31;8350505;28;20206;-58
2023/10/24 12:23:06;;;;;;;0.77;0.40;;;;;;;14.83;100.00;99308.53;8343077;28;20036;-59
2023/10/24 12:27:07;;;;;;;0.40;0.40;;;;;;;14.87;100.00;99301.66;8341224;28;20127;-58
2023/10/24 12:31:08;;;;;;;1.42;0.50;;;;;;;14.95;100.00;99303.38;8345448;28;20049;-58
2023/10/24 12:35:09;;;;;;;0.57;0.30;;;;;;;14.97;100.00;99315.75;8341444;28;20118;-59
2023/10/24 12:39:09;;;;;;;0.80;0.50;;;;;;;14.91;100.00;99305.66;8348598;28;20127;-59
2023/10/24 12:43:10;;;;;;;1.73;0.57;;;;;;;14.73;100.00;99310.72;8341988;28;20407;-59
2023/10/24 12:47:11;;;;;;;0.50;0.30;;;;;;;14.74;100.00;99290.66;8340885;28;20123;-59
2023/10/24 12:51:12;;;;;;;1.50;0.40;;;;;;;14.67;100.00;99319.69;8340236;28;20434;-59
2023/10/24 12:55:13;;;;;;;2.17;0.57;;;;;;;14.55;100.00;99315.78;8347700;28;20049;-59
2023/10/24 12:59:14;;;;;;;0.70;0.30;;;;;;;14.47;100.00;99318.66;8348508;28;20120;-59
2023/10/24 13:03:14;;;;;;;1.65;0.40;;;;;;;14.53;100.00;99293.41;8346207;28;20049;-59
2023/10/24 13:07:16;;;;;;;1.23;0.50;;;;;;;14.66;100.00;99304.41;8344968;28;20073;-59
2023/10/24 13:11:16;;;;;;;2.53;0.77;;;;;;;15.00;100.00;99290.84;8348117;28;20508;-59
2023/10/24 13:15:17;;;;;;;0.60;0.32;;;;;;;15.09;100.00;99306.00;8345837;28;20419;-59
2023/10/24 13:19:17;;;;;;;3.33;0.40;;;;;;;15.15;100.00;99305.19;8339279;28;20047;-59
2023/10/24 13:23:18;;;;;;;2.15;0.35;;;;;;;15.50;100.00;99289.75;8337148;28;20095;-59
2023/10/24 13:27:19;;;;;;;0.82;0.40;;;;;;;15.34;100.00;99282.69;8338794;28;20099;-58
2023/10/24 13:31:19;;;;;;;1.38;0.60;;;;;;;15.32;100.00;99284.81;8338761;28;20044;-58
2023/10/24 13:35:20;;;;;;;2.85;0.70;;;;;;;15.29;100.00;99290.66;8343088;28;20128;-59
2023/10/24 13:39:20;;;;;;;0.68;0.45;;;;;;;15.28;99.56;99278.06;8341040;28;20420;-60
2023/10/24 13:43:21;;;;;;;0.90;0.35;;;;;;;15.43;99.26;99291.56;8342909;28;20065;-58
2023/10/24 13:47:21;;;;;;;2.05;0.50;;;;;;;15.47;97.97;99288.25;8346096;28;20132;-59
2023/10/24 13:51:22;;;;;;;1.70;0.45;;;;;;;15.57;96.06;99288.72;8341570;28;20048;-59
2023/10/24 13:55:22;;;;;;;0.47;0.30;;;;;;;15.74;96.29;99305.56;8339659;28;20051;-59
2023/10/24 13:59:23;;;;;;;1.08;0.43;;;;;;;15.79;92.71;99302.25;8342168;28;20133;-59
2023/10/24 14:03:24;;;;;;;0.50;0.40;;;;;;;15.90;93.65;99298.91;8342438;28;20440;-60
2023/10/24 14:07:24;;;;;;;1.50;0.40;;;;;;;15.94;93.40;99290.13;8338199;28;20053;-60
2023/10/24 14:11:25;;;;;;;0.80;0.50;;;;;;;15.89;93.15;99299.97;8336030;28;20052;-61
2023/10/24 14:15:25;;;;;;;0.88;0.60;;;;;;;15.97;92.91;99295.16;8340889;28;20048;-61
2023/10/24 14:19:26;;;;;;;0.50;0.30;;;;;;;16.11;93.73;99286.00;8338252;28;20079;-60
2023/10/24 14:23:26;;;;;;;1.23;0.30;;;;;;;16.22;92.88;99287.28;8343071;28;20132;-61
2023/10/24 14:27:27;;;;;;;1.63;0.40;;;;;;;16.27;92.95;99290.22;8339926;28;20053;-58
2023/10/24 14:31:27;;;;;;;2.75;0.35;;;;;;;16.29;89.77;99293.59;8339085;28;20041;-58
2023/10/24 14:35:28;;;;;;;0.43;0.30;;;;;;;16.39;88.36;99288.56;8338968;28;20114;-59
2023/10/24 14:39:29;;;;;;;0.73;0.30;;;;;;;16.36;88.21;99289.81;8342472;28;20037;-60
2023/10/24 14:43:30;;;;;;;0.80;0.30;;;;;;;16.40;87.33;99295.69;8333305;28;20086;-59
2023/10/24 14:47:30;;;;;;;2.63;0.50;;;;;;;16.40;87.45;99284.78;8332345;28;20055;-58
2023/10/24 14:51:31;;;;;;;1.90;0.20;;;;;;;16.36;86.86;99283.50;8338233;28;20395;-59
2023/10/24 14:55:31;;;;;;;1.05;0.30;;;;;;;16.35;87.98;99287.31;8344079;28;20054;-60
2023/10/24 14:59:32;;;;;;;0.65;0.30;;;;;;;16.29;87.34;99293.59;8336621;28;20037;-60
2023/10/24 15:03:32;;;;;;;1.88;0.82;;;;;;;16.23;87.58;99294.41;8339670;28;20053;-60
2023/10/24 15:07:33;;;;;;;2.90;0.70;;;;;;;16.18;87.64;99296.91;8335491;28;20400;-61
2023/10/24 15:11:33;;;;;;;2.25;0.65;;;;;;;16.10;87.85;99297.09;8339125;28;20118;-61
2023/10/24 15:15:34;;;;;;;1.02;0.40;;;;;;;16.11;88.20;99290.59;8339214;28;20037;-61
2023/10/24 15:19:34;;;;;;;1.75;0.40;;;;;;;16.02;89.07;99280.94;8333691;28;20041;-62
2023/10/24 15:23:35;;;;;;;0.77;0.30;;;;;;;15.92;90.76;99284.03;8340952;28;20041;-62
2023/10/24 15:27:36;;;;;;;1.10;0.40;;;;;;;15.95;91.21;99280.06;8329923;28;20510;-60
2023/10/24 15:31:37;;;;;;;1.02;0.40;;;;;;;15.87;91.03;99272.91;8331407;28;20128;-60
2023/10/24 15:35:39;;;;;;;2.45;0.57;;;;;;;15.81;91.06;99279.19;8331950;28;20120;-60
2023/10/24 15:39:41;;;;;;;1.17;0.50;;;;;;;15.77;91.54;99277.91;8334691;28;20124;-60
2023/10/24 15:43:41;;;;;;;0.60;0.32;;;;;;;15.68;92.09;99279.97;8335259;28;20045;-59
2023/10/24 15:47:42;;;;;;;2.70;0.60;;;;;;;15.62;92.56;99283.50;8337272;28;20041;-61
2023/10/24 15:51:44;;;;;;;1.73;0.47;;;;;;;15.64;92.77;99289.59;8331467;28;20046;-61
2023/10/24 15:55:44;;;;;;;1.23;0.50;;;;;;;15.52;91.75;99285.75;8337485;28;20609;-61
2023/10/24 15:59:45;;;;;;;8.80;2.50;;;;;;;15.53;92.63;99292.88;8337687;28;20431;-60
2023/10/24 16:03:46;;;;;;;13.57;5.90;;;;;;;15.40;93.96;99281.94;8340551;28;20037;-60
2023/10/24 16:07:46;;;;;;;4.25;1.75;;;;;;;15.32;94.52;99282.06;8340039;28;20041;-60
2023/10/24 16:11:47;;;;;;;2.15;1.40;;;;;;;15.10;96.63;99285.88;8340865;28;20043;-60
2023/10/24 16:15:49;;;;;;;10.38;8.93;;;;;;;15.00;96.75;99285.41;8334890;28;20044;-61
2023/10/24 16:19:50;;;;;;;4.57;4.03;;;;;;;15.03;96.41;99287.75;8339371;28;20056;-61
2023/10/24 16:23:50;;;;;;;2.15;2.05;;;;;;;14.98;96.54;99287.47;8339909;28;20047;-61
2023/10/24 16:27:50;;;;;;;4.13;1.20;;;;;;;14.94;95.51;99291.66;8338105;28;20041;-59
2023/10/24 16:31:51;;;;;;;3.28;1.10;;;;;;;14.90;95.60;99284.94;8338251;28;20044;-59
2023/10/24 16:35:51;;;;;;;5.32;0.93;;;;;;;14.94;95.61;99297.09;8339810;28;20074;-60
2023/10/24 16:39:54;;;;;;;2.03;1.20;;;;;;;14.85;95.45;99302.91;8340794;28;20590;-59
2023/10/24 16:43:55;;;;;;;2.22;0.70;;;;;;;14.75;96.38;99308.66;8342835;28;20110;-59
2023/10/24 16:47:55;;;;;;;18.67;7.95;;;;;;;14.70;96.47;99305.69;8340825;28;20037;-58
2023/10/24 16:51:56;;;;;;;5.00;2.00;;;;;;;14.60;96.32;99309.78;8338732;28;20112;-59
2023/10/24 16:55:57;;;;;;;1.38;0.80;;;;;;;14.42;97.01;99318.41;8328403;28;20344;-61
2023/10/24 16:59:59;;;;;;;3.75;1.02;;;;;;;14.30;97.59;99317.22;8337554;28;20546;-61
2023/10/24 17:04:00;;;;;;;1.65;0.95;;;;;;;14.20;98.44;99323.97;8341370;28;20741;-62
2023/10/24 17:08:00;;;;;;;1.73;0.75;;;;;;;14.14;99.19;99325.59;8338519;28;20695;-58
2023/10/24 17:12:01;;;;;;;1.35;0.70;;;;;;;14.10;99.26;99327.03;8337919;28;20446;-60
2023/10/24 17:16:01;;;;;;;2.55;1.20;;;;;;;13.94;99.49;99332.69;8340540;28;20037;-59
2023/10/24 17:20:04;;;;;;;3.10;0.90;;;;;;;13.83;100.00;99335.91;8342041;28;20045;-59
2023/10/24 17:24:05;;;;;;;3.10;1.48;;;;;;;13.92;99.30;99320.31;8336191;28;20128;-59
2023/10/24 17:28:07;;;;;;;1.40;1.00;;;;;;;13.92;99.75;99334.75;8329829;28;20045;-60
2023/10/24 17:32:07;;;;;;;2.65;0.80;;;;;;;13.84;99.18;99326.69;8309492;28;20037;-60
2023/10/24 17:36:08;;;;;;;1.17;0.70;;;;;;;13.73;99.76;99333.47;8324574;28;20108;-60
2023/10/24 17:40:09;;;;;;;1.35;0.93;;;;;;;13.62;100.00;99330.41;8331707;28;20411;-60
2023/10/24 17:44:09;;;;;;;3.20;1.42;;;;;;;13.57;100.00;99338.25;8338628;28;20041;-60
2023/10/24 17:48:10;;;;;;;2.50;1.20;;;;;;;13.59;100.00;99338.91;8334089;28;20045;-60
2023/10/24 17:52:11;;;;;;;1.77;1.00;;;;;;;13.50;100.00;99342.75;8339360;28;20503;-60
2023/10/24 17:56:11;;;;;;;3.70;1.33;;;;;;;13.33;100.00;99342.09;8335433;28;20067;-60
2023/10/24 18:00:12;;;;;;;3.25;1.60;;;;;;;13.21;100.00;99338.16;8337260;28;20048;-59
2023/10/24 18:04:13;;;;;;;3.92;3.05;;;;;;;13.10;100.00;99340.50;8341126;28;20037;-60
2023/10/24 18:08:13;;;;;;;14.38;7.60;;;;;;;12.95;100.00;99342.31;8335377;28;20049;-61
2023/10/24 18:12:14;;;;;;;16.92;8.18;;;;;;;12.90;100.00;99333.91;8336480;28;20194;-60
2023/10/24 18:16:16;;;;;;;10.98;5.97;;;;;;;12.90;100.00;99336.63;8334770;28;20041;-59
2023/10/24 18:20:17;;;;;;;5.28;3.47;;;;;;;12.85;100.00;99339.88;8335661;28;20029;-60
2023/10/24 18:24:17;;;;;;;3.83;1.20;;;;;;;12.86;100.00;99338.00;8337238;28;20051;-59
2023/10/24 18:28:19;;;;;;;2.35;1.10;;;;;;;12.81;100.00;99340.44;8337585;28;20073;-59
2023/10/24 18:32:20;;;;;;;2.47;1.20;;;;;;;12.72;100.00;99342.34;8338928;28;20672;-59
2023/10/24 18:36:20;;;;;;;1.48;0.93;;;;;;;12.57;100.00;99338.78;8334118;28;20527;-61
2023/10/24 18:40:21;;;;;;;2.38;1.25;;;;;;;12.57;100.00;99337.91;8336046;28;20033;-59
2023/10/24 18:44:21;;;;;;;1.67;0.90;;;;;;;12.60;100.00;99342.97;8336168;28;20043;-58
2023/10/24 18:48:22;;;;;;;2.42;1.00;;;;;;;12.66;100.00;99339.53;8343361;28;20056;-61
2023/10/24 18:52:22;;;;;;;2.67;1.10;;;;;;;12.74;100.00;99344.88;8335279;28;20068;-61
2023/10/24 18:56:23;;;;;;;5.55;1.23;;;;;;;12.69;100.00;99342.72;8334564;28;20055;-61
2023/10/24 19:00:24;;;;;;;2.88;1.00;;;;;;;12.69;100.00;99336.47;8330263;28;20083;-60